Time;durP1;ratioP1;P1;durP2;ratioP2;P2;SDS_P1;SDS_P2;PMS_P1;PMS_P2;Temp;Humidity;BMP_temperature;BMP_pressure;BME280_temperature;BME280_humidity;BME280_pressure;Samples;Min_cycle;Max_cycle;Signal;HPM_P1;HPM_P2
2022/11/13 00:01:25;;;;;;;14.60;9.73;;;;;;;;;;5078723;28;20036;-41
2022/11/13 00:03:51;;;;;;;15.57;9.38;;;;;;;;;;5082458;28;20032;-41
2022/11/13 00:06:18;;;;;;;12.00;8.15;;;;;;;;;;5069819;28;20032;-41
2022/11/13 00:08:45;;;;;;;12.65;8.75;;;;;;;;;;5107236;28;20019;-41
2022/11/13 00:11:13;;;;;;;12.45;7.80;;;;;;;;;;5107938;28;20024;-41
2022/11/13 00:13:39;;;;;;;12.05;8.20;;;;;;;;;;5081122;28;20029;-41
2022/11/13 00:16:06;;;;;;;12.63;8.25;;;;;;;;;;5071194;28;20025;-41
2022/11/13 00:18:36;;;;;;;12.35;8.65;;;;;;;;;;5093759;28;20032;-41
2022/11/13 00:21:06;;;;;;;14.85;9.20;;;;;;;;;;5107487;28;20024;-41
2022/11/13 00:23:33;;;;;;;13.07;8.55;;;;;;;;;;5069126;28;20036;-41
2022/11/13 00:26:19;;;;;;;11.20;7.75;;;;;;;;;;5089492;28;20052;-41
2022/11/13 00:28:45;;;;;;;12.35;8.23;;;;;;;;;;5091172;28;20042;-41
2022/11/13 00:31:12;;;;;;;16.05;9.13;;;;;;;;;;5091413;28;20031;-41
2022/11/13 00:33:38;;;;;;;12.43;8.25;;;;;;;;;;5094910;28;20019;-41
2022/11/13 00:36:05;;;;;;;13.80;8.82;;;;;;;;;;5111697;28;20087;-41
2022/11/13 00:38:31;;;;;;;11.98;7.88;;;;;;;;;;5086479;28;20495;-41
2022/11/13 00:40:57;;;;;;;10.43;7.35;;;;;;;;;;5070700;28;20099;-41
2022/11/13 00:43:24;;;;;;;10.88;7.60;;;;;;;;;;5070929;28;20025;-41
2022/11/13 00:45:50;;;;;;;10.23;7.38;;;;;;;;;;5072417;28;20102;-41
2022/11/13 00:48:16;;;;;;;8.50;6.18;;;;;;;;;;5073765;28;20032;-41
2022/11/13 00:50:42;;;;;;;8.73;6.40;;;;;;;;;;5071943;28;20028;-41
2022/11/13 00:53:08;;;;;;;9.35;6.57;;;;;;;;;;5071861;28;20399;-41
2022/11/13 06:04:04;;;;;;;7.30;5.13;;;;;;;;;;5073698;28;20514;-41
2022/11/13 06:06:31;;;;;;;8.27;5.65;;;;;;;;;;5077648;28;20075;-41
2022/11/13 06:08:58;;;;;;;8.30;5.88;;;;;;;;;;5075406;28;20024;-41
2022/11/13 06:11:25;;;;;;;7.03;5.05;;;;;;;;;;5093479;28;20028;-41
2022/11/13 06:13:52;;;;;;;7.43;5.45;;;;;;;;;;5093114;28;20028;-41
2022/11/13 06:16:27;;;;;;;8.50;6.03;;;;;;;;;;5093207;28;20024;-41
2022/11/13 06:18:58;;;;;;;8.57;6.03;;;;;;;;;;5093208;28;20546;-41
2022/11/13 06:21:25;;;;;;;8.90;6.10;;;;;;;;;;5089078;28;20035;-41
2022/11/13 06:23:51;;;;;;;7.65;5.40;;;;;;;;;;5092183;28;20030;-41
2022/11/13 06:26:22;;;;;;;7.10;5.07;;;;;;;;;;5092936;28;20635;-41
2022/11/13 06:28:48;;;;;;;7.72;5.40;;;;;;;;;;5092780;28;20116;-41
2022/11/13 06:31:16;;;;;;;7.60;5.28;;;;;;;;;;5092721;28;20031;-41
2022/11/13 06:33:42;;;;;;;6.82;5.13;;;;;;;;;;5092848;28;20040;-41
2022/11/13 06:36:10;;;;;;;7.07;4.97;;;;;;;;;;5091750;28;20090;-41
2022/11/13 06:38:36;;;;;;;6.93;4.57;;;;;;;;;;5092243;28;20116;-41
2022/11/13 06:41:04;;;;;;;7.10;4.80;;;;;;;;;;5088888;28;20033;-41
2022/11/13 06:43:31;;;;;;;6.22;3.97;;;;;;;;;;5092782;28;20058;-41
2022/11/13 06:45:57;;;;;;;5.53;4.43;;;;;;;;;;5092583;28;20024;-41
2022/11/13 06:48:24;;;;;;;5.70;4.07;;;;;;;;;;5092332;28;20114;-41
2022/11/13 06:50:50;;;;;;;5.95;4.40;;;;;;;;;;5085813;28;20031;-41
2022/11/13 06:53:16;;;;;;;6.65;4.32;;;;;;;;;;5112603;28;20024;-41
2022/11/13 06:55:46;;;;;;;5.05;4.07;;;;;;;;;;5105480;28;20489;-41
2022/11/13 06:58:13;;;;;;;4.60;3.67;;;;;;;;;;5092397;28;20062;-41
2022/11/13 07:00:39;;;;;;;5.15;3.75;;;;;;;;;;5092032;28;20070;-41
2022/11/13 07:03:05;;;;;;;6.25;4.18;;;;;;;;;;5078618;28;20037;-41
2022/11/13 07:05:31;;;;;;;5.20;4.20;;;;;;;;;;5072136;28;20039;-41
2022/11/13 07:07:57;;;;;;;5.45;3.83;;;;;;;;;;5072165;28;20170;-41
2022/11/13 07:10:23;;;;;;;5.07;3.90;;;;;;;;;;5076987;28;20020;-41
2022/11/13 07:12:49;;;;;;;6.95;3.72;;;;;;;;;;5087268;28;20020;-41
2022/11/13 07:15:15;;;;;;;4.70;3.80;;;;;;;;;;5093466;28;20020;-41
2022/11/13 07:17:41;;;;;;;4.35;3.63;;;;;;;;;;5072499;28;20116;-41
2022/11/13 07:20:08;;;;;;;6.35;4.43;;;;;;;;;;5071551;28;20146;-41
2022/11/13 07:22:33;;;;;;;5.43;4.13;;;;;;;;;;5071696;28;20524;-41
2022/11/13 07:24:59;;;;;;;4.93;3.53;;;;;;;;;;5074922;28;20111;-41
2022/11/13 07:27:25;;;;;;;4.65;3.63;;;;;;;;;;5088216;28;20680;-41
2022/11/13 07:29:51;;;;;;;5.63;4.18;;;;;;;;;;5089525;28;20028;-41
2022/11/13 07:32:18;;;;;;;5.28;4.20;;;;;;;;;;5086626;28;20036;-40
2022/11/13 07:34:44;;;;;;;5.45;3.92;;;;;;;;;;5082917;28;20077;-41
2022/11/13 07:37:10;;;;;;;6.22;4.40;;;;;;;;;;5089746;28;20028;-41
2022/11/13 07:39:36;;;;;;;5.97;4.05;;;;;;;;;;5090081;28;20550;-40
2022/11/13 07:42:02;;;;;;;5.25;3.72;;;;;;;;;;5071819;28;20032;-40
2022/11/13 07:44:28;;;;;;;5.35;4.07;;;;;;;;;;5071924;28;20032;-41
2022/11/13 07:46:54;;;;;;;5.22;4.13;;;;;;;;;;5072211;28;20476;-41
2022/11/13 07:49:20;;;;;;;5.43;4.00;;;;;;;;;;5069192;28;20103;-41
2022/11/13 07:51:46;;;;;;;6.13;4.57;;;;;;;;;;5082113;28;20024;-41
2022/11/13 07:54:12;;;;;;;4.72;4.03;;;;;;;;;;5109031;28;20399;-41
2022/11/13 07:56:38;;;;;;;4.15;3.70;;;;;;;;;;5085697;28;20103;-41
2022/11/13 07:59:04;;;;;;;4.32;3.72;;;;;;;;;;5079729;28;20031;-41
2022/11/13 08:01:30;;;;;;;5.25;3.90;;;;;;;;;;5081727;28;20082;-41
2022/11/13 08:03:56;;;;;;;4.63;3.75;;;;;;;;;;5081779;28;20033;-40
2022/11/13 08:06:23;;;;;;;6.13;4.15;;;;;;;;;;5078048;28;20507;-41
2022/11/13 08:08:50;;;;;;;5.82;4.28;;;;;;;;;;5081793;28;20020;-41
2022/11/13 08:11:16;;;;;;;7.18;5.18;;;;;;;;;;5086434;28;20062;-41
2022/11/13 08:13:42;;;;;;;6.85;4.82;;;;;;;;;;5085058;28;20020;-41
2022/11/13 08:16:08;;;;;;;8.77;6.10;;;;;;;;;;5078440;28;21472;-41
2022/11/13 08:18:34;;;;;;;6.95;5.07;;;;;;;;;;5082523;28;20046;-41
2022/11/13 08:21:01;;;;;;;6.82;5.03;;;;;;;;;;5108224;28;20431;-41
2022/11/13 08:23:28;;;;;;;6.80;4.95;;;;;;;;;;5076310;28;20567;-41
2022/11/13 08:25:54;;;;;;;5.05;3.88;;;;;;;;;;5106699;28;20038;-41
2022/11/13 08:28:21;;;;;;;5.78;4.38;;;;;;;;;;5099548;28;20028;-41
2022/11/13 08:30:48;;;;;;;5.63;3.90;;;;;;;;;;5086376;28;20059;-41
2022/11/13 08:33:14;;;;;;;4.93;3.90;;;;;;;;;;5086577;28;20503;-41
2022/11/13 08:35:40;;;;;;;5.53;4.07;;;;;;;;;;5086605;28;20146;-41
2022/11/13 08:38:08;;;;;;;5.35;3.97;;;;;;;;;;5086799;28;20077;-41
2022/11/13 08:40:34;;;;;;;5.38;3.90;;;;;;;;;;5086821;28;20112;-41
2022/11/13 08:43:01;;;;;;;6.10;4.35;;;;;;;;;;5105504;28;20591;-41
2022/11/13 08:45:28;;;;;;;6.25;4.25;;;;;;;;;;5094691;28;20435;-41
2022/11/13 08:47:58;;;;;;;5.57;4.45;;;;;;;;;;5070573;28;20037;-41
2022/11/13 08:50:25;;;;;;;6.55;4.30;;;;;;;;;;5081899;28;20028;-41
2022/11/13 08:52:54;;;;;;;6.53;4.45;;;;;;;;;;5090498;28;20667;-41
2022/11/13 08:55:21;;;;;;;7.45;4.90;;;;;;;;;;5085074;28;20101;-41
2022/11/13 08:57:48;;;;;;;6.07;4.70;;;;;;;;;;5063294;28;20032;-41
2022/11/13 09:00:14;;;;;;;7.72;4.80;;;;;;;;;;5058849;28;20024;-41
2022/11/13 09:02:41;;;;;;;6.40;4.70;;;;;;;;;;5063318;28;20117;-41
2022/11/13 09:05:07;;;;;;;6.00;4.82;;;;;;;;;;5060012;28;20573;-41
2022/11/13 09:07:33;;;;;;;7.35;5.05;;;;;;;;;;5075494;28;20074;-41
2022/11/13 09:09:59;;;;;;;7.03;4.95;;;;;;;;;;5071067;28;20056;-41
2022/11/13 09:12:25;;;;;;;7.57;5.15;;;;;;;;;;5087052;28;20054;-41
2022/11/13 09:14:51;;;;;;;6.40;4.82;;;;;;;;;;5111218;28;20031;-41
2022/11/13 09:17:17;;;;;;;6.75;4.97;;;;;;;;;;5111326;28;20501;-41
2022/11/13 09:19:43;;;;;;;11.07;5.55;;;;;;;;;;5104300;28;20019;-41
2022/11/13 09:22:10;;;;;;;10.15;6.45;;;;;;;;;;5090287;28;20417;-41
2022/11/13 09:24:36;;;;;;;9.35;6.15;;;;;;;;;;5086569;28;20111;-41
2022/11/13 09:27:02;;;;;;;9.02;6.07;;;;;;;;;;5065343;28;20781;-41
2022/11/13 09:29:28;;;;;;;10.10;6.70;;;;;;;;;;5073862;28;20500;-41
2022/11/13 09:31:55;;;;;;;9.07;5.93;;;;;;;;;;5085371;28;20016;-42
2022/11/13 09:34:21;;;;;;;9.38;5.82;;;;;;;;;;5074418;28;20028;-41
2022/11/13 09:36:48;;;;;;;7.80;5.28;;;;;;;;;;5069259;28;20499;-41
2022/11/13 09:39:14;;;;;;;8.70;5.72;;;;;;;;;;5069432;28;20082;-41
2022/11/13 09:41:46;;;;;;;8.13;5.60;;;;;;;;;;5070120;28;20388;-41
2022/11/13 09:44:27;;;;;;;8.05;5.13;;;;;;;;;;5069475;28;20107;-41
2022/11/13 09:47:03;;;;;;;7.80;5.18;;;;;;;;;;5069249;28;20025;-41
2022/11/13 09:49:32;;;;;;;6.75;4.95;;;;;;;;;;5069055;28;20029;-41
2022/11/13 09:52:13;;;;;;;7.70;5.55;;;;;;;;;;5069015;28;20024;-41
2022/11/13 09:54:39;;;;;;;7.63;5.57;;;;;;;;;;5069829;28;20114;-41
2022/11/13 09:57:44;;;;;;;8.68;5.75;;;;;;;;;;5068430;28;20036;-42
2022/11/13 10:00:15;;;;;;;8.85;5.70;;;;;;;;;;5000846;28;20125;-41
2022/11/13 10:02:47;;;;;;;10.85;6.70;;;;;;;;;;5021467;28;20045;-41
2022/11/13 10:05:13;;;;;;;8.13;5.30;;;;;;;;;;5043938;28;20036;-41
2022/11/13 10:07:57;;;;;;;7.70;5.57;;;;;;;;;;5068379;28;20448;-41
2022/11/13 10:10:23;;;;;;;;;;;;;;;;;;5069238;28;20025;-41
2022/11/13 10:12:51;;;;;;;8.75;5.90;;;;;;;;;;5069379;28;19905;-41
2022/11/13 10:15:17;;;;;;;9.27;6.57;;;;;;;;;;5068955;28;20030;-41
2022/11/13 10:17:43;;;;;;;8.73;5.72;;;;;;;;;;5050754;28;20711;-41
2022/11/13 10:20:19;;;;;;;8.57;5.97;;;;;;;;;;5068621;28;20107;-42
2022/11/13 10:22:56;;;;;;;10.05;7.03;;;;;;;;;;5068567;28;20028;-41
2022/11/13 10:25:25;;;;;;;8.63;6.07;;;;;;;;;;5069195;28;20059;-41
2022/11/13 10:28:00;;;;;;;12.38;7.40;;;;;;;;;;5069045;28;20376;-41
2022/11/13 10:30:26;;;;;;;10.35;7.22;;;;;;;;;;5068483;28;20033;-41
2022/11/13 10:32:53;;;;;;;11.73;7.50;;;;;;;;;;5068985;28;20017;-41
2022/11/13 10:35:27;;;;;;;11.63;7.20;;;;;;;;;;5068873;28;20024;-41
2022/11/13 10:37:53;;;;;;;11.75;7.40;;;;;;;;;;5068223;28;20031;-42
2022/11/13 10:40:24;;;;;;;11.52;7.45;;;;;;;;;;5068943;28;20077;-41
2022/11/13 10:42:50;;;;;;;10.52;7.45;;;;;;;;;;5068761;28;20025;-41
2022/11/13 10:45:17;;;;;;;11.93;7.40;;;;;;;;;;5068279;28;20039;-41
2022/11/13 10:47:48;;;;;;;10.32;7.15;;;;;;;;;;5067989;28;20507;-41
2022/11/13 10:50:24;;;;;;;11.02;7.50;;;;;;;;;;5067978;28;20054;-41
2022/11/13 10:52:51;;;;;;;11.27;7.10;;;;;;;;;;5068841;28;20025;-41
2022/11/13 10:55:17;;;;;;;9.35;6.35;;;;;;;;;;5068080;28;20031;-41
2022/11/13 10:57:53;;;;;;;8.18;5.80;;;;;;;;;;5067799;28;20388;-41
2022/11/13 11:00:29;;;;;;;9.18;6.22;;;;;;;;;;5068501;28;20036;-41
2022/11/13 11:02:55;;;;;;;8.80;5.80;;;;;;;;;;5067775;28;20032;-41
2022/11/13 11:05:23;;;;;;;8.70;5.82;;;;;;;;;;5068184;28;20055;-41
2022/11/13 11:07:49;;;;;;;8.25;5.97;;;;;;;;;;5068293;28;20032;-41
2022/11/13 11:10:21;;;;;;;8.60;6.22;;;;;;;;;;5067194;28;20028;-41
2022/11/13 11:12:57;;;;;;;8.60;6.18;;;;;;;;;;5067694;28;20023;-41
2022/11/13 11:15:25;;;;;;;8.93;6.43;;;;;;;;;;5067797;28;20112;-41
2022/11/13 11:17:59;;;;;;;10.40;6.63;;;;;;;;;;5068136;28;20095;-41
2022/11/13 11:20:31;;;;;;;9.32;6.60;;;;;;;;;;5067441;28;20036;-41
2022/11/13 11:23:15;;;;;;;10.80;6.50;;;;;;;;;;5067746;28;20059;-41
2022/11/13 11:25:41;;;;;;;;;;;;;;;;;;5067932;28;20033;-41
2022/11/13 11:28:29;;;;;;;9.93;6.72;;;;;;;;;;5067461;28;19912;-42
2022/11/13 11:31:00;;;;;;;10.18;7.15;;;;;;;;;;5067317;28;20028;-41
2022/11/13 11:33:31;;;;;;;10.77;7.05;;;;;;;;;;5067307;28;20030;-41
2022/11/13 11:36:01;;;;;;;8.80;6.13;;;;;;;;;;5067346;28;20411;-41
2022/11/13 11:38:54;;;;;;;9.27;6.07;;;;;;;;;;5067394;28;20039;-41
2022/11/13 11:41:25;;;;;;;8.60;6.07;;;;;;;;;;5064578;28;20040;-41
2022/11/13 11:44:00;;;;;;;8.60;5.82;;;;;;;;;;5068147;28;20029;-41
2022/11/13 11:46:28;;;;;;;8.07;5.15;;;;;;;;;;5067275;28;20115;-41
2022/11/13 11:48:55;;;;;;;6.93;5.15;;;;;;;;;;5067356;28;20033;-41
2022/11/13 11:51:26;;;;;;;8.82;5.55;;;;;;;;;;5067592;28;20016;-41
2022/11/13 11:53:52;;;;;;;8.13;5.65;;;;;;;;;;5067811;28;20033;-41
2022/11/13 11:56:24;;;;;;;6.47;5.10;;;;;;;;;;5067042;28;20434;-42
2022/11/13 11:59:09;;;;;;;7.45;5.53;;;;;;;;;;5069063;28;20107;-41
2022/11/13 12:01:47;;;;;;;6.05;5.10;;;;;;;;;;5087956;28;20055;-41
2022/11/13 12:04:26;;;;;;;7.28;5.53;;;;;;;;;;5080846;28;20051;-42
2022/11/13 12:07:10;;;;;;;6.82;5.45;;;;;;;;;;5067139;28;20025;-42
2022/11/13 12:09:40;;;;;;;5.75;4.68;;;;;;;;;;5066836;28;20071;-41
2022/11/13 12:12:18;;;;;;;5.57;4.45;;;;;;;;;;5067222;28;20032;-41
2022/11/13 12:14:54;;;;;;;6.78;5.00;;;;;;;;;;5066932;28;20107;-41
2022/11/13 12:17:27;;;;;;;6.22;4.85;;;;;;;;;;5066813;28;20452;-42
2022/11/13 12:20:09;;;;;;;7.10;5.53;;;;;;;;;;5066793;28;20028;-41
2022/11/13 12:22:45;;;;;;;6.82;4.80;;;;;;;;;;5070863;28;20451;-41
2022/11/13 12:25:30;;;;;;;5.70;4.95;;;;;;;;;;5071070;28;20024;-41
2022/11/13 12:28:03;;;;;;;6.80;5.00;;;;;;;;;;5070710;28;20048;-41
2022/11/13 12:30:39;;;;;;;8.55;5.68;;;;;;;;;;5070649;28;20564;-42
2022/11/13 12:33:19;;;;;;;6.93;4.88;;;;;;;;;;5071363;28;20020;-41
2022/11/13 12:35:47;;;;;;;6.63;5.13;;;;;;;;;;5070756;28;20016;-41
2022/11/13 12:38:18;;;;;;;6.63;4.97;;;;;;;;;;5070484;28;20028;-41
2022/11/13 12:40:56;;;;;;;6.93;4.90;;;;;;;;;;5069716;28;20032;-41
2022/11/13 12:43:25;;;;;;;5.32;4.03;;;;;;;;;;5080723;28;20034;-42
2022/11/13 12:45:56;;;;;;;5.72;4.28;;;;;;;;;;5069150;28;20112;-41
2022/11/13 12:48:26;;;;;;;6.63;4.72;;;;;;;;;;5076667;28;20035;-42
2022/11/13 12:50:57;;;;;;;6.57;4.90;;;;;;;;;;5105204;28;20020;-42
2022/11/13 12:53:27;;;;;;;7.45;4.97;;;;;;;;;;5082446;28;20024;-42
2022/11/13 12:55:59;;;;;;;7.32;5.00;;;;;;;;;;5083618;28;20061;-41
2022/11/13 12:58:32;;;;;;;6.60;5.05;;;;;;;;;;5087213;28;20077;-41
2022/11/13 13:01:10;;;;;;;7.20;5.38;;;;;;;;;;5088707;28;20123;-41
2022/11/13 13:03:44;;;;;;;6.22;4.78;;;;;;;;;;5086773;28;20078;-41
2022/11/13 13:06:22;;;;;;;6.70;5.22;;;;;;;;;;5102393;28;20036;-42
2022/11/13 13:09:00;;;;;;;6.75;4.65;;;;;;;;;;5076514;28;20028;-42
2022/11/13 13:11:35;;;;;;;6.57;4.70;;;;;;;;;;5070053;28;20111;-41
2022/11/13 13:14:20;;;;;;;6.80;4.85;;;;;;;;;;5065720;28;20029;-41
2022/11/13 13:16:46;;;;;;;4.93;4.03;;;;;;;;;;5072853;28;20021;-41
2022/11/13 13:19:23;;;;;;;6.88;4.60;;;;;;;;;;5081665;28;20400;-41
2022/11/13 13:21:49;;;;;;;7.63;5.22;;;;;;;;;;5080627;28;20046;-41
2022/11/13 13:24:29;;;;;;;7.53;5.07;;;;;;;;;;5075660;28;20438;-41
2022/11/13 13:26:55;;;;;;;7.72;4.85;;;;;;;;;;5069163;28;20106;-41
2022/11/13 13:29:23;;;;;;;6.90;4.88;;;;;;;;;;5069558;28;20028;-41
2022/11/13 13:32:08;;;;;;;7.60;5.45;;;;;;;;;;5069208;28;20507;-41
2022/11/13 13:34:40;;;;;;;7.43;4.88;;;;;;;;;;5069889;28;20056;-41
2022/11/13 13:37:18;;;;;;;7.60;5.15;;;;;;;;;;5079699;28;20094;-41
2022/11/13 13:39:51;;;;;;;7.35;4.90;;;;;;;;;;5089476;28;20123;-41
2022/11/13 13:42:52;;;;;;;5.88;4.50;;;;;;;;;;5089341;28;20024;-41
2022/11/13 13:45:22;;;;;;;6.63;4.93;;;;;;;;;;4984026;28;20113;-41
2022/11/13 13:47:51;;;;;;;7.05;5.15;;;;;;;;;;5059146;28;20044;-42
2022/11/13 13:50:19;;;;;;;8.77;5.30;;;;;;;;;;5108186;28;20085;-41
2022/11/13 13:52:47;;;;;;;8.63;5.90;;;;;;;;;;5099251;28;20021;-41
2022/11/13 13:55:18;;;;;;;7.35;5.03;;;;;;;;;;5088107;28;20028;-41
2022/11/13 13:57:44;;;;;;;7.40;5.35;;;;;;;;;;5087440;28;20028;-41
2022/11/13 14:00:13;;;;;;;9.70;5.80;;;;;;;;;;5087695;28;20032;-41
2022/11/13 14:02:46;;;;;;;8.60;5.88;;;;;;;;;;5087580;28;20589;-41
2022/11/13 14:05:22;;;;;;;6.72;5.22;;;;;;;;;;5074433;28;20037;-39
2022/11/13 14:07:48;;;;;;;6.55;5.15;;;;;;;;;;5068806;28;20395;-39
2022/11/13 14:10:19;;;;;;;7.03;4.82;;;;;;;;;;5068891;28;20029;-39
2022/11/13 14:12:45;;;;;;;8.93;5.72;;;;;;;;;;5087149;28;20617;-39
2022/11/13 14:15:23;;;;;;;7.20;5.00;;;;;;;;;;5088967;28;20024;-39
2022/11/13 14:17:49;;;;;;;7.60;4.82;;;;;;;;;;5088871;28;20027;-39
2022/11/13 14:20:15;;;;;;;6.43;4.45;;;;;;;;;;5088799;28;20032;-39
2022/11/13 14:22:43;;;;;;;9.07;5.57;;;;;;;;;;5088635;28;20024;-39
2022/11/13 14:25:18;;;;;;;8.00;5.03;;;;;;;;;;5088876;28;20467;-39
2022/11/13 14:27:44;;;;;;;7.18;5.00;;;;;;;;;;5071242;28;20120;-39
2022/11/13 14:30:30;;;;;;;7.03;4.97;;;;;;;;;;5076937;28;20141;-39
2022/11/13 14:32:57;;;;;;;7.03;4.93;;;;;;;;;;5076914;28;20111;-39
2022/11/13 14:35:24;;;;;;;6.93;4.95;;;;;;;;;;5068300;28;20033;-39
2022/11/13 14:37:51;;;;;;;7.22;4.70;;;;;;;;;;5068304;28;20040;-39
2022/11/13 14:40:25;;;;;;;6.22;4.40;;;;;;;;;;5068232;28;20044;-38
2022/11/13 14:42:52;;;;;;;;;;;;;;;;;;5080933;28;20494;-39
2022/11/13 14:45:20;;;;;;;5.95;4.05;;;;;;;;;;5106137;28;19946;-39
2022/11/13 14:48:09;;;;;;;5.65;4.07;;;;;;;;;;5094994;28;20495;-39
2022/11/13 14:50:36;;;;;;;6.57;4.25;;;;;;;;;;5086003;28;20028;-39
2022/11/13 14:53:09;;;;;;;6.38;4.22;;;;;;;;;;5087107;28;20020;-39
2022/11/13 14:55:50;;;;;;;6.07;4.28;;;;;;;;;;5087281;28;20111;-39
2022/11/13 14:58:26;;;;;;;6.70;4.15;;;;;;;;;;5086640;28;20036;-38
2022/11/13 15:00:52;;;;;;;5.63;4.00;;;;;;;;;;5106782;28;20110;-39
2022/11/13 15:03:18;;;;;;;5.50;4.20;;;;;;;;;;5106730;28;20028;-39
2022/11/13 15:05:44;;;;;;;6.22;4.45;;;;;;;;;;5106866;28;20088;-39
2022/11/13 15:08:13;;;;;;;7.95;4.75;;;;;;;;;;5106560;28;20035;-39
2022/11/13 15:10:40;;;;;;;6.45;4.85;;;;;;;;;;5098124;28;20058;-39
2022/11/13 15:13:13;;;;;;;6.63;4.88;;;;;;;;;;5066585;28;20586;-39
2022/11/13 15:15:39;;;;;;;6.30;4.47;;;;;;;;;;5072641;28;20024;-39
2022/11/13 15:18:06;;;;;;;6.53;4.72;;;;;;;;;;5078110;28;20100;-39
2022/11/13 15:20:32;;;;;;;5.50;4.07;;;;;;;;;;5080203;28;20029;-39
2022/11/13 15:22:59;;;;;;;6.38;4.25;;;;;;;;;;5079387;28;20035;-39
2022/11/13 15:25:25;;;;;;;5.85;4.10;;;;;;;;;;5085587;28;20101;-39
2022/11/13 15:27:52;;;;;;;4.85;4.10;;;;;;;;;;5075494;28;20654;-39
2022/11/13 15:30:18;;;;;;;6.57;5.00;;;;;;;;;;5072280;28;20179;-39
2022/11/13 15:32:45;;;;;;;6.15;4.57;;;;;;;;;;5086035;28;20495;-39
2022/11/13 15:35:18;;;;;;;5.97;4.53;;;;;;;;;;5085496;28;20395;-39
2022/11/13 15:37:45;;;;;;;5.25;4.10;;;;;;;;;;5084272;28;20426;-39
2022/11/13 15:40:12;;;;;;;5.93;4.25;;;;;;;;;;5067315;28;20115;-39
2022/11/13 15:42:38;;;;;;;6.25;4.22;;;;;;;;;;5065633;28;20039;-39
2022/11/13 15:45:07;;;;;;;5.55;3.72;;;;;;;;;;5070013;28;20028;-39
2022/11/13 15:47:35;;;;;;;4.15;3.08;;;;;;;;;;5085010;28;20035;-39
2022/11/13 15:50:03;;;;;;;3.55;2.83;;;;;;;;;;5081756;28;20027;-41
2022/11/13 15:52:31;;;;;;;3.30;2.58;;;;;;;;;;5084266;28;20028;-41
2022/11/13 15:54:57;;;;;;;4.43;3.00;;;;;;;;;;5075625;28;20063;-41
2022/11/13 15:57:28;;;;;;;3.50;2.75;;;;;;;;;;5073272;28;20050;-41
2022/11/13 15:59:55;;;;;;;5.88;3.00;;;;;;;;;;5063991;28;20883;-41
2022/11/13 16:02:21;;;;;;;3.33;2.63;;;;;;;;;;5073608;28;20407;-41
2022/11/13 16:04:50;;;;;;;3.22;2.33;;;;;;;;;;5069870;28;20036;-41
2022/11/13 16:07:18;;;;;;;3.17;2.17;;;;;;;;;;5065036;28;20025;-41
2022/11/13 16:09:44;;;;;;;2.30;1.90;;;;;;;;;;5080299;28;20022;-41
2022/11/13 16:12:13;;;;;;;2.53;1.83;;;;;;;;;;5104626;28;20038;-41
2022/11/13 16:14:39;;;;;;;2.20;1.80;;;;;;;;;;5082670;28;20040;-41
2022/11/13 16:17:10;;;;;;;2.10;1.70;;;;;;;;;;5071360;28;20071;-41
2022/11/13 16:19:37;;;;;;;2.53;1.90;;;;;;;;;;5075299;28;20394;-41
2022/11/13 16:22:07;;;;;;;3.17;2.08;;;;;;;;;;5072232;28;20033;-41
2022/11/13 16:24:33;;;;;;;2.55;2.13;;;;;;;;;;5072316;28;20499;-41
2022/11/13 16:27:00;;;;;;;2.83;2.40;;;;;;;;;;5049960;28;20044;-41
2022/11/13 16:29:26;;;;;;;3.20;2.00;;;;;;;;;;5062395;28;20598;-41
2022/11/13 16:31:52;;;;;;;3.70;2.55;;;;;;;;;;5071143;28;20021;-41
2022/11/13 16:34:19;;;;;;;3.78;2.80;;;;;;;;;;5083150;28;20028;-41
2022/11/13 16:36:46;;;;;;;5.95;4.03;;;;;;;;;;5075328;28;20104;-41
2022/11/13 16:39:15;;;;;;;6.82;4.50;;;;;;;;;;5077114;28;20027;-41
2022/11/13 16:41:41;;;;;;;5.90;4.18;;;;;;;;;;5085750;28;20043;-41
2022/11/13 16:44:07;;;;;;;6.88;3.70;;;;;;;;;;5073580;28;20538;-41
2022/11/13 16:46:34;;;;;;;4.90;3.80;;;;;;;;;;5072268;28;20056;-41
2022/11/13 16:49:01;;;;;;;5.45;3.85;;;;;;;;;;5067388;28;20031;-41
2022/11/13 16:51:28;;;;;;;4.63;3.33;;;;;;;;;;5064581;28;20056;-41
2022/11/13 16:53:54;;;;;;;3.65;3.00;;;;;;;;;;5063848;28;20187;-41
2022/11/13 16:56:23;;;;;;;4.68;2.83;;;;;;;;;;5083065;28;20028;-41
2022/11/13 16:58:50;;;;;;;4.13;2.70;;;;;;;;;;5078741;28;20040;-41
2022/11/13 17:01:17;;;;;;;5.50;2.00;;;;;;;;;;5080753;28;20036;-41
2022/11/13 17:03:43;;;;;;;4.35;2.58;;;;;;;;;;5080441;28;20036;-42
2022/11/13 17:06:18;;;;;;;3.78;2.60;;;;;;;;;;5072611;28;20122;-41
2022/11/13 17:08:45;;;;;;;4.85;2.22;;;;;;;;;;5080142;28;20032;-41
2022/11/13 17:11:12;;;;;;;3.60;2.30;;;;;;;;;;5074841;28;20389;-41
2022/11/13 17:13:38;;;;;;;4.00;2.67;;;;;;;;;;5074506;28;20196;-41
2022/11/13 17:16:04;;;;;;;4.57;2.85;;;;;;;;;;5071345;28;20027;-41
2022/11/13 17:18:30;;;;;;;3.85;2.22;;;;;;;;;;5071733;28;20503;-41
2022/11/13 17:20:56;;;;;;;2.95;2.00;;;;;;;;;;5086321;28;20047;-41
2022/11/13 17:23:22;;;;;;;3.75;2.42;;;;;;;;;;5076245;28;20028;-41
2022/11/13 17:25:48;;;;;;;4.07;2.35;;;;;;;;;;5065904;28;20043;-41
2022/11/13 17:28:15;;;;;;;3.35;2.20;;;;;;;;;;5080595;28;20028;-41
2022/11/13 17:30:41;;;;;;;2.63;1.83;;;;;;;;;;5058033;28;21329;-41
2022/11/13 17:33:07;;;;;;;2.33;1.90;;;;;;;;;;5078205;28;20024;-41
2022/11/13 17:35:33;;;;;;;2.88;1.90;;;;;;;;;;5079253;28;20052;-41
2022/11/13 17:38:00;;;;;;;3.22;1.77;;;;;;;;;;5056175;28;20499;-41
2022/11/13 17:40:27;;;;;;;3.38;1.73;;;;;;;;;;5082221;28;20040;-41
2022/11/13 17:42:53;;;;;;;4.18;1.77;;;;;;;;;;5077643;28;20026;-41
2022/11/13 17:45:19;;;;;;;2.47;1.50;;;;;;;;;;5075992;28;20032;-41
2022/11/13 17:47:45;;;;;;;3.55;1.85;;;;;;;;;;5091210;28;20506;-41
2022/11/13 17:50:11;;;;;;;2.95;1.88;;;;;;;;;;5066132;28;20032;-41
2022/11/13 17:52:37;;;;;;;5.47;2.50;;;;;;;;;;5082508;28;20024;-41
2022/11/13 17:55:06;;;;;;;4.15;2.38;;;;;;;;;;5107549;28;20023;-41
2022/11/13 17:57:32;;;;;;;3.47;2.58;;;;;;;;;;5086776;28;20020;-41
2022/11/13 17:59:58;;;;;;;3.65;2.40;;;;;;;;;;5077213;28;20107;-41
2022/11/13 18:02:24;;;;;;;3.00;2.10;;;;;;;;;;5072238;28;20028;-41
2022/11/13 18:04:52;;;;;;;2.97;2.00;;;;;;;;;;5081881;28;20032;-41
2022/11/13 18:07:18;;;;;;;4.68;2.25;;;;;;;;;;5066792;28;20025;-41
2022/11/13 18:09:44;;;;;;;3.67;2.35;;;;;;;;;;5071125;28;20027;-41
2022/11/13 18:12:10;;;;;;;5.10;2.40;;;;;;;;;;5067861;28;20484;-41
2022/11/13 18:14:36;;;;;;;4.43;2.28;;;;;;;;;;5075451;28;20036;-41
2022/11/13 18:17:02;;;;;;;5.20;2.67;;;;;;;;;;5080707;28;20063;-41
2022/11/13 18:19:29;;;;;;;5.18;2.53;;;;;;;;;;5078820;28;20024;-41
2022/11/13 18:21:55;;;;;;;4.43;2.40;;;;;;;;;;5074621;28;20566;-41
2022/11/13 18:24:22;;;;;;;5.47;2.53;;;;;;;;;;5081070;28;20394;-41
2022/11/13 18:26:48;;;;;;;5.88;3.10;;;;;;;;;;5053609;28;20030;-43
2022/11/13 18:29:14;;;;;;;3.88;2.58;;;;;;;;;;5081989;28;20028;-42
2022/11/13 18:31:40;;;;;;;4.88;2.72;;;;;;;;;;5061821;28;20063;-41
2022/11/13 18:34:08;;;;;;;4.28;2.47;;;;;;;;;;5069865;28;20050;-41
2022/11/13 18:36:34;;;;;;;5.70;2.40;;;;;;;;;;5073348;28;20471;-42
2022/11/13 18:39:01;;;;;;;4.13;2.35;;;;;;;;;;5051630;28;20024;-41
2022/11/13 18:41:29;;;;;;;3.58;2.22;;;;;;;;;;5082781;28;20399;-41
2022/11/13 18:43:55;;;;;;;6.15;2.53;;;;;;;;;;5081531;28;20039;-41
2022/11/13 18:46:21;;;;;;;5.57;2.70;;;;;;;;;;5098192;28;20065;-41
2022/11/13 18:48:48;;;;;;;6.50;2.50;;;;;;;;;;5079477;28;20032;-41
2022/11/13 18:51:16;;;;;;;4.50;2.40;;;;;;;;;;5077184;28;20024;-41
2022/11/13 18:53:44;;;;;;;6.97;3.55;;;;;;;;;;5070077;28;20028;-41
2022/11/13 18:56:12;;;;;;;4.45;2.83;;;;;;;;;;5061409;28;20027;-41
2022/11/13 18:58:40;;;;;;;8.10;3.28;;;;;;;;;;5098929;28;20039;-41
2022/11/13 19:01:15;;;;;;;4.57;2.90;;;;;;;;;;5080126;28;20112;-41
2022/11/13 19:03:41;;;;;;;4.60;2.70;;;;;;;;;;5078339;28;20447;-41
2022/11/13 19:06:12;;;;;;;5.32;2.42;;;;;;;;;;5078421;28;20396;-42
2022/11/13 19:08:38;;;;;;;4.53;2.28;;;;;;;;;;5058751;28;20032;-42
2022/11/13 19:11:05;;;;;;;4.43;2.10;;;;;;;;;;5078007;28;20028;-41
2022/11/13 19:13:31;;;;;;;4.07;2.60;;;;;;;;;;5079547;28;20051;-41
2022/11/13 19:15:57;;;;;;;4.30;2.90;;;;;;;;;;5078647;28;20024;-41
2022/11/13 19:18:23;;;;;;;4.05;2.08;;;;;;;;;;5071780;28;20043;-41
2022/11/13 19:20:49;;;;;;;3.53;2.28;;;;;;;;;;5072168;28;20021;-41
2022/11/13 19:23:15;;;;;;;5.05;2.40;;;;;;;;;;5077146;28;20376;-41
2022/11/13 19:25:41;;;;;;;4.55;2.15;;;;;;;;;;5056836;28;20416;-41
2022/11/13 19:28:07;;;;;;;5.30;2.20;;;;;;;;;;5082805;28;20121;-41
2022/11/13 19:30:33;;;;;;;5.45;2.65;;;;;;;;;;5082178;28;20142;-41
2022/11/13 19:32:59;;;;;;;3.88;2.78;;;;;;;;;;5070092;28;20115;-41
2022/11/13 19:35:25;;;;;;;4.25;2.45;;;;;;;;;;5071922;28;20027;-42
2022/11/13 19:37:55;;;;;;;4.10;2.50;;;;;;;;;;5070959;28;20076;-41
2022/11/13 19:40:21;;;;;;;4.85;2.65;;;;;;;;;;5073428;28;20404;-42
2022/11/13 19:42:47;;;;;;;5.65;2.40;;;;;;;;;;5068134;28;20024;-41
2022/11/13 19:45:13;;;;;;;6.32;2.90;;;;;;;;;;5072810;28;20020;-42
2022/11/13 19:47:39;;;;;;;5.70;2.67;;;;;;;;;;5080525;28;20104;-43
2022/11/13 19:50:05;;;;;;;6.32;2.30;;;;;;;;;;5082396;28;20063;-42
2022/11/13 19:52:31;;;;;;;7.22;3.35;;;;;;;;;;5061117;28;20052;-43
2022/11/13 19:54:57;;;;;;;6.60;2.50;;;;;;;;;;5080920;28;20086;-43
2022/11/13 19:57:23;;;;;;;4.85;2.40;;;;;;;;;;5068244;28;20108;-42
2022/11/13 19:59:49;;;;;;;7.60;2.50;;;;;;;;;;5082837;28;20402;-42
2022/11/13 20:02:15;;;;;;;9.13;3.20;;;;;;;;;;5077536;28;20178;-43